M/T Arcadia — SY7849 — position and weather

sailwx.info

Track history (hours):
 
Tides and Currents Weather Stations Pressure Air Temp Water Temp Dewpoint Dewpoint Depression Visibility Wind Speed Wind Dir Waves Ship Positions

M/T Arcadia

Last reported at 2016-Sep-29 00:27 UTC. Time now 2016-Sep-30 01:35 UTC.
Position N 37°24' E 023°24'.

Length 76 m; draft 4.7 m.

Type: Tanker. MMSI: 240560000.

Date/timePositionNaut miles runAvg speedWind from/ knotsBaromVisibWave heightAir tempDewpointWater temp
2016-Sep-29 00:27N 37°24' E 023°24'0 0.0
2016-Sep-28 21:33N 37°24' E 023°24'8 3.9
2016-Sep-28 19:33N 37°26' E 023°33'17 5.6
2016-Sep-28 16:33N 37°39' E 023°21'6 6.0
2016-Sep-28 15:33N 37°44' E 023°16'14 0.7
2016-Sep-27 19:06N 37°55' E 023°05'14 3.1
2016-Sep-27 14:33N 37°44' E 023°16'7 7.1
2016-Sep-27 13:33N 37°39' E 023°23'33 0.7
2016-Sep-25 12:33N 37°07' E 023°13'8 7.8
2016-Sep-25 11:33N 37°14' E 023°15'6 4.7
2016-Sep-25 10:20N 37°20' E 023°13'0 0.0
2016-Sep-25 09:29N 37°20' E 023°13'0 0.0
2016-Sep-25 07:29N 37°20' E 023°13'0 0.0
2016-Sep-25 04:05N 37°20' E 023°13'0 0.0
2016-Sep-25 00:32N 37°20' E 023°13'0 0.0
2016-Sep-24 22:32N 37°20' E 023°13'0 0.0
2016-Sep-24 21:23N 37°20' E 023°13'0 0.0
2016-Sep-24 19:32N 37°20' E 023°13'0 0.0
2016-Sep-24 18:29N 37°20' E 023°13'0 0.0
2016-Sep-24 17:32N 37°20' E 023°13'0 0.0
2016-Sep-24 16:32N 37°20' E 023°13'0 0.0
2016-Sep-24 14:32N 37°20' E 023°13'0 0.0
2016-Sep-24 12:32N 37°20' E 023°13'0 0.0
2016-Sep-24 10:29N 37°20' E 023°13'0 0.0
2016-Sep-24 09:17N 37°20' E 023°13'0 0.0
2016-Sep-24 02:26N 37°20' E 023°13'0 0.0
2016-Sep-24 01:33N 37°20' E 023°13'6 4.6
2016-Sep-24 00:09N 37°19' E 023°21'22 4.9
2016-Sep-23 19:33N 37°41' E 023°17'14 7.2
2016-Sep-23 17:33N 37°53' E 023°08'2 0.1
2016-Sep-23 01:27N 37°55' E 023°06'0 0.3
2016-Sep-23 00:33N 37°55' E 023°06'0 0.0
2016-Sep-22 23:33N 37°55' E 023°06'0 0.0
2016-Sep-22 20:33N 37°55' E 023°06'24 2.9
2016-Sep-22 12:33N 37°38' E 023°27'  
2016-Sep-19 23:33N 37°04' E 023°22'23 5.7
2016-Sep-19 19:33N 37°23' E 023°37'7 6.9
2016-Sep-19 18:33N 37°30' E 023°34'15 7.4
2016-Sep-19 16:33N 37°40' E 023°20'13 6.6
2016-Sep-19 14:33N 37°51' E 023°11'  
Track history (hours):
 
Tides and Currents Weather Stations Pressure Air Temp Water Temp Dewpoint Dewpoint Depression Visibility Wind Speed Wind Dir Waves Ship Positions

M/T Arcadia

Last reported at 2016-Sep-29 00:27 UTC. Time now 2016-Sep-30 01:35 UTC.
Position N 37°24' E 023°24'.

Length 76 m; draft 4.7 m.

Type: Tanker. MMSI: 240560000.

Date/timePositionNaut miles runAvg speedWind from/ knotsBaromVisibWave heightAir tempDewpointWater temp
2016-Sep-29 00:27N 37°24' E 023°24'0 0.0
2016-Sep-28 21:33N 37°24' E 023°24'8 3.9
2016-Sep-28 19:33N 37°26' E 023°33'17 5.6
2016-Sep-28 16:33N 37°39' E 023°21'6 6.0
2016-Sep-28 15:33N 37°44' E 023°16'14 0.7
2016-Sep-27 19:06N 37°55' E 023°05'14 3.1
2016-Sep-27 14:33N 37°44' E 023°16'7 7.1
2016-Sep-27 13:33N 37°39' E 023°23'33 0.7
2016-Sep-25 12:33N 37°07' E 023°13'8 7.8
2016-Sep-25 11:33N 37°14' E 023°15'6 4.7
2016-Sep-25 10:20N 37°20' E 023°13'0 0.0
2016-Sep-25 09:29N 37°20' E 023°13'0 0.0
2016-Sep-25 07:29N 37°20' E 023°13'0 0.0
2016-Sep-25 04:05N 37°20' E 023°13'0 0.0
2016-Sep-25 00:32N 37°20' E 023°13'0 0.0
2016-Sep-24 22:32N 37°20' E 023°13'0 0.0
2016-Sep-24 21:23N 37°20' E 023°13'0 0.0
2016-Sep-24 19:32N 37°20' E 023°13'0 0.0
2016-Sep-24 18:29N 37°20' E 023°13'0 0.0
2016-Sep-24 17:32N 37°20' E 023°13'0 0.0
2016-Sep-24 16:32N 37°20' E 023°13'0 0.0
2016-Sep-24 14:32N 37°20' E 023°13'0 0.0
2016-Sep-24 12:32N 37°20' E 023°13'0 0.0
2016-Sep-24 10:29N 37°20' E 023°13'0 0.0
2016-Sep-24 09:17N 37°20' E 023°13'0 0.0
2016-Sep-24 02:26N 37°20' E 023°13'0 0.0
2016-Sep-24 01:33N 37°20' E 023°13'6 4.6
2016-Sep-24 00:09N 37°19' E 023°21'22 4.9
2016-Sep-23 19:33N 37°41' E 023°17'14 7.2
2016-Sep-23 17:33N 37°53' E 023°08'2 0.1
2016-Sep-23 01:27N 37°55' E 023°06'0 0.3
2016-Sep-23 00:33N 37°55' E 023°06'0 0.0
2016-Sep-22 23:33N 37°55' E 023°06'0 0.0
2016-Sep-22 20:33N 37°55' E 023°06'24 2.9
2016-Sep-22 12:33N 37°38' E 023°27'  
2016-Sep-19 23:33N 37°04' E 023°22'23 5.7
2016-Sep-19 19:33N 37°23' E 023°37'7 6.9
2016-Sep-19 18:33N 37°30' E 023°34'15 7.4
2016-Sep-19 16:33N 37°40' E 023°20'13 6.6
2016-Sep-19 14:33N 37°51' E 023°11'  

Dump ship's entire track history